createdAt,value
2017-12-13T00:00:39.817Z,1.23
2017-12-13T00:01:20.328Z,1.24
2017-12-13T00:02:00.844Z,1.23
2017-12-13T00:02:41.366Z,1.26
2017-12-13T00:03:21.895Z,1.29
2017-12-13T00:04:02.425Z,1.29
2017-12-13T00:04:42.938Z,1.27
2017-12-13T00:05:23.447Z,1.18
2017-12-13T00:06:04.041Z,1.2
2017-12-13T00:06:44.562Z,1.22
2017-12-13T00:07:25.089Z,1.18
2017-12-13T00:08:05.614Z,1.23
2017-12-13T00:08:46.144Z,1.27
2017-12-13T00:09:26.673Z,1.22
2017-12-13T00:10:07.186Z,1.3
2017-12-13T00:10:47.715Z,1.3
2017-12-13T00:11:28.241Z,1.27
2017-12-13T00:12:08.760Z,1.29
2017-12-13T00:12:49.280Z,1.3
2017-12-13T00:13:29.818Z,1.3
2017-12-13T00:14:10.329Z,1.33
2017-12-13T00:14:50.857Z,1.37
2017-12-13T00:15:31.353Z,1.4
2017-12-13T00:16:11.872Z,1.45
2017-12-13T00:16:52.421Z,1.3
2017-12-13T00:17:32.934Z,1.3
2017-12-13T00:18:13.459Z,1.32
2017-12-13T00:18:53.973Z,1.34
2017-12-13T00:19:34.491Z,1.2
2017-12-13T00:20:15.023Z,1.26
2017-12-13T00:20:55.538Z,1.23
2017-12-13T00:21:36.066Z,1.24
2017-12-13T00:22:16.586Z,1.34
2017-12-13T00:22:57.124Z,1.41
2017-12-13T00:23:37.653Z,1.3
2017-12-13T00:24:18.171Z,1.33
2017-12-13T00:24:58.686Z,1.29
2017-12-13T00:25:39.210Z,1.29
2017-12-13T00:26:19.727Z,1.29
2017-12-13T00:27:00.246Z,1.3
2017-12-13T00:27:40.766Z,1.24
2017-12-13T00:28:21.312Z,1.24
2017-12-13T00:29:01.840Z,1.2
2017-12-13T00:29:42.371Z,1.29
2017-12-13T00:30:22.886Z,1.2
2017-12-13T00:31:03.397Z,1.18
2017-12-13T00:31:43.940Z,1.27
2017-12-13T00:32:24.458Z,1.24
2017-12-13T00:33:04.980Z,1.23
2017-12-13T00:33:45.521Z,1.29
2017-12-13T00:34:26.044Z,1.29
2017-12-13T00:35:06.551Z,1.2
2017-12-13T00:35:47.072Z,1.26
2017-12-13T00:36:27.606Z,1.29
2017-12-13T00:37:08.120Z,1.2
2017-12-13T00:37:48.644Z,1.26
2017-12-13T00:38:29.171Z,1.29
2017-12-13T00:39:09.698Z,1.26
2017-12-13T00:39:50.210Z,1.33
2017-12-13T00:40:30.728Z,1.23
2017-12-13T00:41:11.263Z,1.33
2017-12-13T00:41:51.773Z,1.18
2017-12-13T00:42:32.305Z,1.24
2017-12-13T00:43:12.825Z,1.26
2017-12-13T00:43:53.360Z,1.27
2017-12-13T00:44:33.897Z,1.29
2017-12-13T00:45:14.428Z,1.18
2017-12-13T00:45:54.956Z,1.18
2017-12-13T00:46:35.467Z,1.11
2017-12-13T00:47:15.992Z,1.22
2017-12-13T00:47:56.499Z,1.22
2017-12-13T00:48:37.017Z,1.27
2017-12-13T00:49:17.556Z,1.22
2017-12-13T00:49:58.065Z,1.15
2017-12-13T00:50:38.594Z,1.24
2017-12-13T00:51:19.113Z,1.18
2017-12-13T00:51:59.622Z,1.16
2017-12-13T00:52:40.148Z,1.11
2017-12-13T00:53:20.678Z,1.11
2017-12-13T00:54:01.190Z,1.14
2017-12-13T00:54:41.745Z,1.18
2017-12-13T00:55:22.259Z,1.15
2017-12-13T00:56:02.787Z,1.12
2017-12-13T00:56:43.324Z,1.05
2017-12-13T00:57:23.856Z,1.06
2017-12-13T00:58:04.401Z,1.08
2017-12-13T00:58:44.916Z,1.11
2017-12-13T00:59:25.450Z,1.14
2017-12-13T01:00:05.964Z,1.04
2017-12-13T01:00:46.540Z,1
2017-12-13T01:01:27.071Z,1.04
2017-12-13T01:02:07.590Z,1.11
2017-12-13T01:02:48.125Z,1.11
2017-12-13T01:03:28.632Z,1.09
2017-12-13T01:04:09.135Z,1.11
2017-12-13T01:04:49.659Z,1.11
2017-12-13T01:05:30.205Z,1.11
2017-12-13T01:06:10.715Z,1.02
2017-12-13T01:06:51.242Z,1.11
2017-12-13T01:07:31.763Z,1.08
2017-12-13T01:08:12.283Z,1.06
2017-12-13T01:08:52.822Z,1.08
2017-12-13T01:09:33.337Z,1.08
2017-12-13T01:10:13.866Z,0.94
2017-12-13T01:10:54.385Z,1.08
2017-12-13T01:11:34.922Z,1.09
2017-12-13T01:12:15.459Z,0.94
2017-12-13T01:12:55.978Z,1.09
2017-12-13T01:13:36.569Z,1
2017-12-13T01:14:17.032Z,1.15
2017-12-13T01:14:57.560Z,1.12
2017-12-13T01:15:38.088Z,1.11
2017-12-13T01:16:18.614Z,1
2017-12-13T01:16:59.146Z,1.05
2017-12-13T01:17:39.664Z,1.11
2017-12-13T01:18:20.197Z,1.06
2017-12-13T01:19:00.714Z,1.15
2017-12-13T01:19:41.235Z,0.98
2017-12-13T01:20:21.748Z,1.04
2017-12-13T01:21:02.272Z,1
2017-12-13T01:21:42.791Z,1.05
2017-12-13T01:22:23.312Z,1.04
2017-12-13T01:23:03.850Z,0.97
2017-12-13T01:23:44.362Z,1
2017-12-13T01:24:24.877Z,0.98
2017-12-13T01:25:05.407Z,1.02
2017-12-13T01:25:45.933Z,0.97
2017-12-13T01:26:26.460Z,1.05
2017-12-13T01:27:06.995Z,1.02
2017-12-13T01:27:47.508Z,0.94
2017-12-13T01:28:28.021Z,0.97
2017-12-13T01:29:08.570Z,0.97
2017-12-13T01:29:49.102Z,0.91
2017-12-13T01:30:29.618Z,0.88
2017-12-13T01:31:10.135Z,0.94
2017-12-13T01:31:50.652Z,0.96
2017-12-13T01:32:31.190Z,0.91
2017-12-13T01:33:11.718Z,0.93
2017-12-13T01:33:52.241Z,0.87
2017-12-13T01:34:32.827Z,0.93
2017-12-13T01:35:13.370Z,0.86
2017-12-13T01:35:53.906Z,0.87
2017-12-13T01:36:34.417Z,0.84
2017-12-13T01:37:14.949Z,0.8
2017-12-13T01:37:55.467Z,0.78
2017-12-13T01:38:36.000Z,0.87
2017-12-13T01:39:16.530Z,0.78
2017-12-13T01:39:57.047Z,0.79
2017-12-13T01:40:37.573Z,0.8
2017-12-13T01:41:18.104Z,0.83
2017-12-13T01:41:58.633Z,0.8
2017-12-13T01:42:39.158Z,0.83
2017-12-13T01:43:19.721Z,0.88
2017-12-13T01:44:00.250Z,0.84
2017-12-13T01:44:40.777Z,0.84
2017-12-13T01:45:21.280Z,0.86
2017-12-13T01:46:01.802Z,0.84
2017-12-13T01:46:42.329Z,0.83
2017-12-13T01:47:22.863Z,0.83
2017-12-13T01:48:03.391Z,0.86
2017-12-13T01:48:43.937Z,0.86
2017-12-13T01:49:24.474Z,0.93
2017-12-13T01:50:05.009Z,0.87
2017-12-13T01:50:45.552Z,0.9
2017-12-13T01:51:26.080Z,0.86
2017-12-13T01:52:06.611Z,0.87
2017-12-13T01:52:47.126Z,0.79
2017-12-13T01:53:27.647Z,0.8
2017-12-13T01:54:08.193Z,0.88
2017-12-13T01:54:48.714Z,0.87
2017-12-13T01:55:29.249Z,0.87
2017-12-13T01:56:09.768Z,0.93
2017-12-13T01:56:50.304Z,0.91
2017-12-13T01:57:30.854Z,0.93
2017-12-13T01:58:11.383Z,0.97
2017-12-13T01:58:51.900Z,0.97
2017-12-13T01:59:32.392Z,0.94
2017-12-13T02:00:12.921Z,0.94
2017-12-13T02:00:53.434Z,1
2017-12-13T02:01:33.947Z,0.94
2017-12-13T02:02:14.465Z,0.93
2017-12-13T02:02:54.986Z,0.97
2017-12-13T02:03:35.489Z,0.98
2017-12-13T02:04:16.019Z,0.94
2017-12-13T02:04:56.540Z,0.88
2017-12-13T02:05:37.066Z,0.94
2017-12-13T02:07:51.260Z,0.9
2017-12-13T02:08:31.752Z,0.9
2017-12-13T02:09:12.302Z,0.79
2017-12-13T02:09:52.782Z,0.9
2017-12-13T02:10:33.293Z,0.87
2017-12-13T02:11:13.804Z,0.8
2017-12-13T02:11:54.320Z,0.83
2017-12-13T02:12:34.845Z,0.83
2017-12-13T02:13:15.369Z,0.79
2017-12-13T02:13:55.856Z,0.86
2017-12-13T02:14:36.386Z,0.83
2017-12-13T02:15:16.875Z,0.9
2017-12-13T02:15:57.394Z,0.9
2017-12-13T02:16:37.886Z,0.9
2017-12-13T02:17:18.398Z,0.94
2017-12-13T02:17:58.908Z,0.93
2017-12-13T02:18:39.430Z,0.91
2017-12-13T02:19:19.981Z,0.88
2017-12-13T02:20:00.458Z,0.9
2017-12-13T02:20:40.976Z,0.84
2017-12-13T02:21:21.473Z,0.86
2017-12-13T02:22:01.984Z,0.83
2017-12-13T02:22:42.492Z,0.8
2017-12-13T02:23:22.986Z,0.76
2017-12-13T02:24:03.499Z,0.87
2017-12-13T02:24:44.001Z,0.86
2017-12-13T02:25:24.528Z,0.9
2017-12-13T02:26:05.035Z,0.8
2017-12-13T02:26:45.527Z,0.84
2017-12-13T02:27:26.040Z,0.87
2017-12-13T02:28:06.560Z,0.76
2017-12-13T02:28:47.076Z,0.91
2017-12-13T02:29:27.573Z,0.86
2017-12-13T02:30:08.085Z,0.97
2017-12-13T02:30:48.583Z,0.94
2017-12-13T02:31:29.103Z,0.94
2017-12-13T02:32:09.603Z,1
2017-12-13T02:32:50.106Z,1.02
2017-12-13T02:33:30.626Z,1.04
2017-12-13T02:34:11.131Z,1.06
2017-12-13T02:34:51.646Z,1.04
2017-12-13T02:35:32.152Z,1.02
2017-12-13T02:36:12.656Z,1.12
2017-12-13T02:36:53.159Z,1.08
2017-12-13T02:37:33.675Z,1.14
2017-12-13T02:38:14.196Z,1.11
2017-12-13T02:38:54.704Z,1.14
2017-12-13T02:39:35.216Z,1.14
2017-12-13T02:40:15.803Z,1.14
2017-12-13T02:40:56.309Z,1.09
2017-12-13T02:41:36.818Z,1.09
2017-12-13T02:42:17.339Z,1.05
2017-12-13T02:42:57.838Z,1.14
2017-12-13T02:43:38.355Z,1.14
2017-12-13T02:44:18.869Z,1.09
2017-12-13T02:44:59.382Z,1.12
2017-12-13T02:45:39.884Z,1.14
2017-12-13T02:46:20.397Z,1.05
2017-12-13T02:47:00.921Z,1.11
2017-12-13T02:47:41.405Z,1.09
2017-12-13T02:48:21.897Z,1.12
2017-12-13T02:49:02.412Z,1.14
2017-12-13T02:49:42.928Z,1.12
2017-12-13T02:50:23.409Z,1.14
2017-12-13T02:51:03.939Z,1.24
2017-12-13T02:51:44.436Z,1.18
2017-12-13T02:52:24.923Z,1.24
2017-12-13T02:53:05.469Z,1.29
2017-12-13T02:53:45.982Z,1.24
2017-12-13T02:54:26.488Z,1.18
2017-12-13T02:55:07.012Z,1.29
2017-12-13T02:55:47.527Z,1.2
2017-12-13T02:56:28.054Z,1.23
2017-12-13T02:57:08.588Z,1.22
2017-12-13T02:57:49.084Z,1.23
2017-12-13T02:58:29.644Z,1.23
2017-12-13T02:59:10.101Z,1.2
2017-12-13T02:59:50.600Z,1.29
2017-12-13T03:00:31.117Z,1.24
2017-12-13T03:01:11.634Z,1.26
2017-12-13T03:01:52.134Z,1.3
2017-12-13T03:02:32.630Z,1.3
2017-12-13T03:03:13.150Z,1.26
2017-12-13T03:03:53.660Z,1.34
2017-12-13T03:04:34.174Z,1.23
2017-12-13T03:05:14.681Z,1.23
2017-12-13T03:05:55.184Z,1.24
2017-12-13T03:06:35.709Z,1.23
2017-12-13T03:07:16.222Z,1.23
2017-12-13T03:07:56.730Z,1.26
2017-12-13T03:08:37.252Z,1.23
2017-12-13T03:09:17.776Z,1.3
2017-12-13T03:09:58.279Z,1.18
2017-12-13T03:10:38.802Z,1.27
2017-12-13T03:11:19.301Z,1.33
2017-12-13T03:11:59.819Z,1.27
2017-12-13T03:12:40.332Z,1.22
2017-12-13T03:13:20.839Z,1.24
2017-12-13T03:14:01.337Z,1.3
2017-12-13T03:14:41.847Z,1.26
2017-12-13T03:15:22.349Z,1.29
2017-12-13T03:16:02.850Z,1.24
2017-12-13T03:16:43.351Z,1.27
2017-12-13T03:17:23.858Z,1.29
2017-12-13T03:18:04.363Z,1.33
2017-12-13T03:18:44.878Z,1.3
2017-12-13T03:19:25.385Z,1.32
2017-12-13T03:20:05.893Z,1.41
2017-12-13T03:20:46.412Z,1.34
2017-12-13T03:21:26.941Z,1.37
2017-12-13T03:22:07.452Z,1.45
2017-12-13T03:22:47.973Z,1.5
2017-12-13T03:23:28.495Z,1.48
2017-12-13T03:24:09.017Z,1.44
2017-12-13T03:24:49.522Z,1.47
2017-12-13T03:25:30.013Z,1.47
2017-12-13T03:26:10.527Z,1.45
2017-12-13T03:26:51.039Z,1.58
2017-12-13T03:27:31.554Z,1.6
2017-12-13T03:28:12.084Z,1.55
2017-12-13T03:28:52.588Z,1.54
2017-12-13T03:29:33.076Z,1.45
2017-12-13T03:30:13.606Z,1.55
2017-12-13T03:30:54.117Z,1.55
2017-12-13T03:31:34.641Z,1.58
2017-12-13T03:32:15.146Z,1.59
2017-12-13T03:32:55.670Z,1.59
2017-12-13T03:33:36.173Z,1.59
2017-12-13T03:34:16.696Z,1.68
2017-12-13T03:34:57.207Z,1.69
2017-12-13T03:35:37.735Z,1.73
2017-12-13T03:36:18.316Z,1.8
2017-12-13T03:36:58.819Z,1.81
2017-12-13T03:37:39.335Z,1.81
2017-12-13T03:38:19.857Z,1.86
2017-12-13T03:39:00.325Z,2
2017-12-13T03:39:40.841Z,1.98
2017-12-13T03:40:21.346Z,2
2017-12-13T03:41:01.852Z,2.09
2017-12-13T03:41:42.372Z,2.02
2017-12-13T03:42:22.886Z,2.07
2017-12-13T03:43:03.421Z,2.07
2017-12-13T03:43:43.943Z,2
2017-12-13T03:44:24.463Z,2.05
2017-12-13T03:45:04.983Z,2
2017-12-13T03:45:45.498Z,2.03
2017-12-13T03:46:25.993Z,2.02
2017-12-13T03:47:06.524Z,2.07
2017-12-13T03:47:47.025Z,2.03
2017-12-13T03:48:27.515Z,2.07
2017-12-13T03:49:08.024Z,1.99
